Time;durP1;ratioP1;P1;durP2;ratioP2;P2;SDS_P1;SDS_P2;PMS_P1;PMS_P2;Temp;Humidity;BMP_temperature;BMP_pressure;BME280_temperature;BME280_humidity;BME280_pressure;Samples;Min_cycle;Max_cycle;Signal;HPM_P1;HPM_P2
2023/08/21 00:01:59;;;;;;;15.95;5.38;;;;;;;;;;4974053;28;20035;-69
2023/08/21 00:04:24;;;;;;;11.07;4.55;;;;;;;;;;4973295;28;20178;-67
2023/08/21 00:06:50;;;;;;;10.93;5.07;;;;;;;;;;4973625;28;20525;-68
2023/08/21 00:09:15;;;;;;;10.13;5.15;;;;;;;;;;4973962;28;20031;-66
2023/08/21 00:11:40;;;;;;;9.30;4.57;;;;;;;;;;4981900;28;20026;-66
2023/08/21 00:14:06;;;;;;;11.48;4.90;;;;;;;;;;4984144;28;20023;-70
2023/08/21 00:16:32;;;;;;;8.52;5.53;;;;;;;;;;4973519;28;20117;-70
2023/08/21 00:18:57;;;;;;;10.32;5.07;;;;;;;;;;4973109;28;20085;-67
2023/08/21 00:21:23;;;;;;;12.13;5.18;;;;;;;;;;4966561;28;20019;-68
2023/08/21 00:23:48;;;;;;;9.52;5.13;;;;;;;;;;4962601;28;20485;-63
2023/08/21 00:26:14;;;;;;;8.98;4.53;;;;;;;;;;4967025;28;20106;-63
2023/08/21 00:28:39;;;;;;;8.45;4.82;;;;;;;;;;4961671;28;20031;-63
2023/08/21 00:31:06;;;;;;;10.32;4.80;;;;;;;;;;4964373;28;20106;-63
2023/08/21 00:33:32;;;;;;;8.18;4.10;;;;;;;;;;4966127;28;20054;-65
2023/08/21 00:35:58;;;;;;;12.38;4.75;;;;;;;;;;4966356;28;20036;-62
2023/08/21 00:38:23;;;;;;;9.10;4.47;;;;;;;;;;4962299;28;20042;-63
2023/08/21 00:40:49;;;;;;;11.27;5.07;;;;;;;;;;4965345;28;20035;-64
2023/08/21 00:43:15;;;;;;;10.98;6.10;;;;;;;;;;4963670;28;20020;-64
2023/08/21 00:45:43;;;;;;;9.23;4.13;;;;;;;;;;4970337;28;20065;-62
2023/08/21 00:48:09;;;;;;;11.60;4.53;;;;;;;;;;4973566;28;20094;-61
2023/08/21 00:50:35;;;;;;;8.93;4.45;;;;;;;;;;4973587;28;20106;-62
2023/08/21 00:53:02;;;;;;;7.40;4.70;;;;;;;;;;4973522;28;20031;-62
2023/08/21 00:55:29;;;;;;;16.33;4.80;;;;;;;;;;4972654;28;20053;-63
2023/08/21 00:57:54;;;;;;;7.80;4.70;;;;;;;;;;4973512;28;20078;-63
2023/08/21 01:00:22;;;;;;;9.82;4.57;;;;;;;;;;4973260;28;20373;-63
2023/08/21 01:02:47;;;;;;;11.15;4.72;;;;;;;;;;4973404;28;20068;-62
2023/08/21 01:05:13;;;;;;;9.50;4.35;;;;;;;;;;4973546;28;20066;-62
2023/08/21 01:08:02;;;;;;;7.38;4.13;;;;;;;;;;4991245;28;20038;-62
2023/08/21 01:10:55;;;;;;;9.75;4.68;;;;;;;;;;4954100;28;20477;-62
2023/08/21 01:13:45;;;;;;;9.02;4.80;;;;;;;;;;4953985;29;20031;-63
2023/08/21 01:16:13;;;;;;;11.55;4.97;;;;;;;;;;4955253;28;20485;-61
2023/08/21 01:18:39;;;;;;;9.18;4.60;;;;;;;;;;4956310;29;20031;-63
2023/08/21 01:21:05;;;;;;;6.78;4.00;;;;;;;;;;4957340;29;20033;-62
2023/08/21 01:23:42;;;;;;;10.63;5.20;;;;;;;;;;4957210;29;20122;-62
2023/08/21 01:26:07;;;;;;;7.25;4.30;;;;;;;;;;4973841;28;20078;-62
2023/08/21 01:28:34;;;;;;;10.13;5.00;;;;;;;;;;4976681;28;20472;-62
2023/08/21 01:31:05;;;;;;;10.73;4.93;;;;;;;;;;5020362;23;20054;-62
2023/08/21 01:33:34;;;;;;;9.75;4.80;;;;;;;;;;4975360;28;20081;-62
2023/08/21 01:36:03;;;;;;;8.93;4.35;;;;;;;;;;4976418;28;20050;-63
2023/08/21 01:38:32;;;;;;;9.45;5.10;;;;;;;;;;4976098;28;20034;-62
2023/08/21 01:40:58;;;;;;;8.93;4.78;;;;;;;;;;4976519;28;20023;-62
2023/08/21 01:43:24;;;;;;;12.45;5.13;;;;;;;;;;4976499;28;20031;-63
2023/08/21 01:45:49;;;;;;;10.07;5.28;;;;;;;;;;4976210;28;20117;-66
2023/08/21 01:48:15;;;;;;;13.05;5.13;;;;;;;;;;4976247;28;20066;-66
2023/08/21 01:50:40;;;;;;;7.18;4.78;;;;;;;;;;4976190;28;20388;-63
2023/08/21 01:53:05;;;;;;;9.13;5.07;;;;;;;;;;4975920;28;20043;-65
2023/08/21 01:55:31;;;;;;;7.20;4.38;;;;;;;;;;4976009;28;20440;-63
2023/08/21 01:57:56;;;;;;;7.80;4.72;;;;;;;;;;4976046;28;20034;-66
2023/08/21 02:00:22;;;;;;;9.35;4.53;;;;;;;;;;4975964;28;20018;-63
2023/08/21 02:02:47;;;;;;;7.47;4.80;;;;;;;;;;4976126;28;20427;-67
2023/08/21 02:05:13;;;;;;;11.65;4.93;;;;;;;;;;4975972;28;20118;-62
2023/08/21 02:07:38;;;;;;;8.02;4.13;;;;;;;;;;4993497;28;20026;-66
2023/08/21 02:10:04;;;;;;;8.27;5.57;;;;;;;;;;4977335;28;20058;-66
2023/08/21 02:12:29;;;;;;;10.05;4.68;;;;;;;;;;4974681;28;20058;-68
2023/08/21 02:14:55;;;;;;;11.05;5.82;;;;;;;;;;4975680;28;20038;-66
2023/08/21 02:17:20;;;;;;;11.38;5.30;;;;;;;;;;4975744;28;20085;-66
2023/08/21 02:19:45;;;;;;;9.30;5.10;;;;;;;;;;4975614;28;20451;-64
2023/08/21 02:22:11;;;;;;;8.25;4.60;;;;;;;;;;4975580;28;20019;-65
2023/08/21 02:24:36;;;;;;;10.20;4.63;;;;;;;;;;4975660;28;20030;-67
2023/08/21 02:27:03;;;;;;;16.60;5.28;;;;;;;;;;4975397;28;20034;-64
2023/08/21 02:29:28;;;;;;;13.05;5.00;;;;;;;;;;4975378;28;20456;-67
2023/08/21 02:31:54;;;;;;;7.22;4.60;;;;;;;;;;4975239;28;20039;-69
2023/08/21 02:34:19;;;;;;;9.27;5.07;;;;;;;;;;4975511;28;20041;-69
2023/08/21 02:36:44;;;;;;;15.77;5.30;;;;;;;;;;4975333;28;20110;-69
2023/08/21 02:39:10;;;;;;;11.25;5.18;;;;;;;;;;4975459;28;20023;-69
2023/08/21 02:41:35;;;;;;;13.02;5.03;;;;;;;;;;4975398;28;20062;-69
2023/08/21 02:44:01;;;;;;;10.48;5.03;;;;;;;;;;4975241;28;20034;-69
2023/08/21 02:46:26;;;;;;;8.35;5.13;;;;;;;;;;4975119;28;20038;-67
2023/08/21 02:48:51;;;;;;;8.00;4.72;;;;;;;;;;4975115;28;20034;-68
2023/08/21 02:51:17;;;;;;;9.15;4.88;;;;;;;;;;4974939;28;20027;-69
2023/08/21 02:53:42;;;;;;;11.50;5.68;;;;;;;;;;4975192;28;20034;-69
2023/08/21 02:56:08;;;;;;;7.45;5.45;;;;;;;;;;4974906;28;20097;-68
2023/08/21 02:58:33;;;;;;;11.43;5.30;;;;;;;;;;4974726;28;20019;-69
2023/08/21 03:00:58;;;;;;;11.07;5.63;;;;;;;;;;4974751;28;20067;-65
2023/08/21 03:03:24;;;;;;;13.43;5.90;;;;;;;;;;4974954;28;20357;-64
2023/08/21 03:05:49;;;;;;;9.30;5.63;;;;;;;;;;4978011;28;20089;-62
2023/08/21 03:08:16;;;;;;;10.18;5.20;;;;;;;;;;4994401;28;20027;-63
2023/08/21 03:10:42;;;;;;;13.45;6.90;;;;;;;;;;4979762;28;20477;-63
2023/08/21 03:13:07;;;;;;;10.43;6.57;;;;;;;;;;4974830;28;20027;-62
2023/08/21 03:15:34;;;;;;;11.38;6.60;;;;;;;;;;4974938;28;20062;-65
2023/08/21 03:18:00;;;;;;;14.05;7.60;;;;;;;;;;4974792;28;20019;-70
2023/08/21 03:20:25;;;;;;;13.82;7.20;;;;;;;;;;4974472;28;20026;-72
2023/08/21 03:22:51;;;;;;;13.70;7.38;;;;;;;;;;4974470;28;20026;-64
2023/08/21 03:25:16;;;;;;;18.45;8.10;;;;;;;;;;4974543;28;20037;-70
2023/08/21 03:27:44;;;;;;;12.55;7.50;;;;;;;;;;4974704;28;20043;-69
2023/08/21 03:30:10;;;;;;;14.20;7.57;;;;;;;;;;4974581;28;20022;-65
2023/08/21 03:32:35;;;;;;;22.38;9.07;;;;;;;;;;4974118;28;20050;-70
2023/08/21 03:35:01;;;;;;;18.00;9.13;;;;;;;;;;4974290;28;20034;-66
2023/08/21 03:37:26;;;;;;;16.98;7.93;;;;;;;;;;4974358;28;20384;-70
2023/08/21 03:39:52;;;;;;;15.25;8.73;;;;;;;;;;4973577;28;20105;-69
2023/08/21 03:42:17;;;;;;;14.85;9.07;;;;;;;;;;4974343;28;20494;-69
2023/08/21 03:44:43;;;;;;;15.48;8.35;;;;;;;;;;4974331;28;20167;-67
2023/08/21 03:47:08;;;;;;;20.13;8.57;;;;;;;;;;4974440;28;20122;-69
2023/08/21 03:49:33;;;;;;;14.82;9.02;;;;;;;;;;4973870;28;20027;-69
2023/08/21 03:51:59;;;;;;;16.90;8.40;;;;;;;;;;4974400;28;20027;-66
2023/08/21 03:54:24;;;;;;;21.80;9.45;;;;;;;;;;4974346;28;20027;-66
2023/08/21 03:56:50;;;;;;;19.58;10.45;;;;;;;;;;4973997;28;20437;-64
2023/08/21 03:59:15;;;;;;;18.00;8.90;;;;;;;;;;4974199;28;20039;-63
2023/08/21 04:01:40;;;;;;;18.48;8.90;;;;;;;;;;4974099;28;20031;-63
2023/08/21 04:04:06;;;;;;;52.47;12.57;;;;;;;;;;4973765;28;20019;-63
2023/08/21 04:06:31;;;;;;;30.58;11.90;;;;;;;;;;4982896;28;20028;-67
2023/08/21 04:08:57;;;;;;;43.20;14.63;;;;;;;;;;4993121;28;20062;-66
2023/08/21 04:11:22;;;;;;;40.10;14.75;;;;;;;;;;4975194;28;20109;-68
2023/08/21 04:13:48;;;;;;;88.25;16.25;;;;;;;;;;4972752;28;20066;-65
2023/08/21 04:16:13;;;;;;;40.00;15.23;;;;;;;;;;4973961;28;20027;-62
2023/08/21 04:18:39;;;;;;;46.13;14.82;;;;;;;;;;4973752;28;20535;-65
2023/08/21 04:21:04;;;;;;;59.65;14.77;;;;;;;;;;4974012;28;20041;-66
2023/08/21 04:23:30;;;;;;;33.20;15.38;;;;;;;;;;4973971;28;20074;-62
2023/08/21 04:26:02;;;;;;;27.27;13.15;;;;;;;;;;4973567;28;20039;-62
2023/08/21 04:28:29;;;;;;;31.17;12.10;;;;;;;;;;4973826;28;20062;-62
2023/08/21 04:30:57;;;;;;;32.30;13.75;;;;;;;;;;4973659;28;20037;-63
2023/08/21 04:33:23;;;;;;;26.13;13.73;;;;;;;;;;4973621;28;20038;-63
2023/08/21 04:35:49;;;;;;;31.33;13.05;;;;;;;;;;4973742;28;20034;-62
2023/08/21 04:38:14;;;;;;;32.33;14.00;;;;;;;;;;4973583;28;20031;-62
2023/08/21 04:40:40;;;;;;;22.05;11.15;;;;;;;;;;4973857;28;20077;-62
2023/08/21 04:43:05;;;;;;;24.95;11.15;;;;;;;;;;4973928;28;20369;-61
2023/08/21 04:45:30;;;;;;;25.30;13.27;;;;;;;;;;4973639;28;20041;-62
2023/08/21 04:47:56;;;;;;;42.97;15.30;;;;;;;;;;4973772;28;20019;-64
2023/08/21 04:50:21;;;;;;;44.28;15.57;;;;;;;;;;4972614;28;20436;-67
2023/08/21 04:52:48;;;;;;;40.53;15.82;;;;;;;;;;4976256;28;20042;-71
2023/08/21 04:55:14;;;;;;;32.78;13.38;;;;;;;;;;4977718;28;20047;-65
2023/08/21 04:57:39;;;;;;;22.92;13.00;;;;;;;;;;4977156;28;20058;-64
2023/08/21 05:00:06;;;;;;;22.00;12.27;;;;;;;;;;4977271;28;20037;-66
2023/08/21 05:02:31;;;;;;;18.35;11.25;;;;;;;;;;4977265;28;20030;-62
2023/08/21 05:04:56;;;;;;;23.23;13.07;;;;;;;;;;4977240;28;20031;-69
2023/08/21 05:07:22;;;;;;;27.30;13.98;;;;;;;;;;4992966;28;20034;-67
2023/08/21 05:09:47;;;;;;;23.13;12.93;;;;;;;;;;4996519;28;20031;-66
2023/08/21 05:12:12;;;;;;;17.98;10.82;;;;;;;;;;4977296;28;20404;-69
2023/08/21 05:14:38;;;;;;;17.58;10.73;;;;;;;;;;4977067;28;20055;-70
2023/08/21 05:17:04;;;;;;;15.88;10.00;;;;;;;;;;4977066;28;20077;-70
2023/08/21 05:19:29;;;;;;;17.67;10.45;;;;;;;;;;4977119;28;20030;-71
2023/08/21 05:21:55;;;;;;;15.90;10.27;;;;;;;;;;4976979;28;20027;-70
2023/08/21 05:24:20;;;;;;;16.25;10.05;;;;;;;;;;4976729;28;20025;-70
2023/08/21 05:26:45;;;;;;;18.58;11.52;;;;;;;;;;4976952;28;20159;-70
2023/08/21 05:29:11;;;;;;;19.13;11.93;;;;;;;;;;4976689;28;20023;-70
2023/08/21 05:31:36;;;;;;;17.52;10.50;;;;;;;;;;4976666;28;20039;-68
2023/08/21 05:34:02;;;;;;;16.05;10.38;;;;;;;;;;4980491;28;20413;-68
2023/08/21 05:36:27;;;;;;;13.55;10.50;;;;;;;;;;4976547;28;20066;-68
2023/08/21 05:38:53;;;;;;;15.07;8.90;;;;;;;;;;4976647;28;20467;-69
2023/08/21 05:41:18;;;;;;;12.32;9.20;;;;;;;;;;4976656;28;20460;-67
2023/08/21 05:43:45;;;;;;;12.65;9.10;;;;;;;;;;4975940;28;20046;-67
2023/08/21 05:46:11;;;;;;;14.80;10.13;;;;;;;;;;4976554;28;20396;-68
2023/08/21 05:48:36;;;;;;;17.40;9.48;;;;;;;;;;4976468;28;20038;-71
2023/08/21 05:51:02;;;;;;;24.05;9.93;;;;;;;;;;4976439;28;20022;-71
2023/08/21 05:53:27;;;;;;;18.92;9.32;;;;;;;;;;4976468;28;20042;-70
2023/08/21 05:55:53;;;;;;;20.90;9.80;;;;;;;;;;4975993;28;20062;-70
2023/08/21 05:58:19;;;;;;;17.90;9.68;;;;;;;;;;4975826;28;20053;-69
2023/08/21 06:00:46;;;;;;;14.18;7.93;;;;;;;;;;4976253;28;20054;-68
2023/08/21 06:03:11;;;;;;;12.27;7.90;;;;;;;;;;4975363;28;20396;-69
2023/08/21 06:05:37;;;;;;;12.43;8.07;;;;;;;;;;4977758;28;20027;-70
2023/08/21 06:08:02;;;;;;;14.27;8.30;;;;;;;;;;4995676;28;20084;-69
2023/08/21 06:10:28;;;;;;;10.32;7.65;;;;;;;;;;4992098;28;20026;-69
2023/08/21 06:12:53;;;;;;;12.73;7.18;;;;;;;;;;4975696;28;20038;-69
2023/08/21 06:15:19;;;;;;;12.73;6.78;;;;;;;;;;4975914;28;20033;-69
2023/08/21 06:17:44;;;;;;;11.05;6.13;;;;;;;;;;4981300;28;20179;-67
2023/08/21 06:20:10;;;;;;;10.32;6.47;;;;;;;;;;4995232;28;20031;-68
2023/08/21 06:22:36;;;;;;;9.02;6.43;;;;;;;;;;4995401;28;20023;-69
2023/08/21 06:25:01;;;;;;;9.93;6.60;;;;;;;;;;4987426;28;20102;-70
2023/08/21 06:27:27;;;;;;;13.80;6.55;;;;;;;;;;4975029;28;20081;-72
2023/08/21 06:29:52;;;;;;;11.07;7.03;;;;;;;;;;4975797;28;20042;-69
2023/08/21 06:32:18;;;;;;;11.43;7.15;;;;;;;;;;4975322;28;20043;-70
2023/08/21 06:34:43;;;;;;;9.98;6.72;;;;;;;;;;4979522;28;20019;-69
2023/08/21 06:37:09;;;;;;;15.77;7.55;;;;;;;;;;4981279;28;20045;-71
2023/08/21 06:39:34;;;;;;;14.32;7.07;;;;;;;;;;4986154;28;20022;-73
2023/08/21 06:42:00;;;;;;;12.55;6.72;;;;;;;;;;4988625;28;20090;-72
2023/08/21 06:44:26;;;;;;;18.20;7.35;;;;;;;;;;4986482;28;20480;-74
2023/08/21 06:46:51;;;;;;;12.32;8.15;;;;;;;;;;4983627;28;20104;-67
2023/08/21 06:49:17;;;;;;;9.80;6.57;;;;;;;;;;4977593;28;20138;-70
2023/08/21 06:51:43;;;;;;;21.15;6.63;;;;;;;;;;4988427;28;20069;-70
2023/08/21 06:54:08;;;;;;;11.85;5.50;;;;;;;;;;4976689;28;20074;-67
2023/08/21 06:56:33;;;;;;;9.63;4.93;;;;;;;;;;4976554;28;20031;-70
2023/08/21 06:58:59;;;;;;;7.63;4.47;;;;;;;;;;4977806;28;20049;-69
2023/08/21 07:01:24;;;;;;;13.95;5.25;;;;;;;;;;4985869;28;20396;-70
2023/08/21 07:03:50;;;;;;;18.88;6.80;;;;;;;;;;4994310;28;20383;-68
2023/08/21 07:06:15;;;;;;;8.98;4.97;;;;;;;;;;4987378;28;20039;-71
2023/08/21 07:08:41;;;;;;;11.45;5.00;;;;;;;;;;4973511;28;20035;-71
2023/08/21 07:11:10;;;;;;;7.35;4.00;;;;;;;;;;4974610;28;20034;-69
2023/08/21 07:13:36;;;;;;;8.90;4.03;;;;;;;;;;4974648;28;20117;-68
2023/08/21 07:16:02;;;;;;;65.57;15.15;;;;;;;;;;4991168;28;20038;-71
2023/08/21 07:18:29;;;;;;;13.50;5.55;;;;;;;;;;4992733;28;20030;-67
2023/08/21 07:20:54;;;;;;;13.23;4.85;;;;;;;;;;4994027;28;20030;-71
2023/08/21 07:23:20;;;;;;;15.52;5.07;;;;;;;;;;4994072;28;20026;-71
2023/08/21 07:25:45;;;;;;;30.52;7.05;;;;;;;;;;4979985;28;20089;-69
2023/08/21 07:28:11;;;;;;;11.45;4.47;;;;;;;;;;4974285;28;20480;-72
2023/08/21 07:30:38;;;;;;;9.40;5.00;;;;;;;;;;4974566;28;20035;-69
2023/08/21 07:33:05;;;;;;;10.38;4.00;;;;;;;;;;4990584;28;20049;-67
2023/08/21 07:35:30;;;;;;;12.00;5.28;;;;;;;;;;4992008;28;20026;-70
2023/08/21 07:37:56;;;;;;;8.70;3.63;;;;;;;;;;4974377;28;20058;-69
2023/08/21 07:40:21;;;;;;;8.35;3.38;;;;;;;;;;4974061;28;20125;-70
2023/08/21 07:42:46;;;;;;;14.98;5.28;;;;;;;;;;4974315;28;20030;-71
2023/08/21 07:45:12;;;;;;;12.18;3.75;;;;;;;;;;4974019;28;20034;-67
2023/08/21 07:47:37;;;;;;;12.07;4.18;;;;;;;;;;4972607;28;20105;-71
2023/08/21 07:50:04;;;;;;;11.10;3.00;;;;;;;;;;4974020;28;20033;-67
2023/08/21 07:52:29;;;;;;;8.90;3.40;;;;;;;;;;4989296;28;20353;-68
2023/08/21 07:54:55;;;;;;;8.75;2.80;;;;;;;;;;4993576;28;20026;-72
2023/08/21 07:57:20;;;;;;;7.40;3.05;;;;;;;;;;4974329;28;20488;-71
2023/08/21 07:59:46;;;;;;;9.38;3.40;;;;;;;;;;4973760;28;20058;-66
2023/08/21 08:02:14;;;;;;;5.78;3.03;;;;;;;;;;4973868;28;20031;-71
2023/08/21 08:04:40;;;;;;;7.25;3.00;;;;;;;;;;4985345;28;20468;-68
2023/08/21 08:07:05;;;;;;;6.63;2.95;;;;;;;;;;4977431;28;20034;-70
2023/08/21 08:09:31;;;;;;;5.88;2.38;;;;;;;;;;4973557;28;20110;-67
2023/08/21 08:11:56;;;;;;;11.15;3.42;;;;;;;;;;4973747;28;20038;-68
2023/08/21 08:14:21;;;;;;;6.15;2.78;;;;;;;;;;4972466;28;20027;-71
2023/08/21 08:16:47;;;;;;;5.45;2.63;;;;;;;;;;4973680;28;20475;-70
2023/08/21 08:19:13;;;;;;;6.05;2.65;;;;;;;;;;4972392;28;20035;-64
2023/08/21 08:21:38;;;;;;;10.85;3.38;;;;;;;;;;4973774;28;20045;-71
2023/08/21 08:24:04;;;;;;;7.97;2.90;;;;;;;;;;4972235;28;20337;-67
2023/08/21 08:26:29;;;;;;;8.07;4.53;;;;;;;;;;4956495;28;20377;-74
2023/08/21 08:28:55;;;;;;;9.00;3.40;;;;;;;;;;4958242;29;20468;-66
2023/08/21 08:31:20;;;;;;;5.72;2.83;;;;;;;;;;4958364;28;20045;-73
2023/08/21 08:33:47;;;;;;;12.52;7.68;;;;;;;;;;4958462;28;20106;-67
2023/08/21 08:36:13;;;;;;;11.10;6.93;;;;;;;;;;4958005;28;20063;-69
2023/08/21 08:38:38;;;;;;;6.53;3.13;;;;;;;;;;4977369;28;20061;-71
2023/08/21 08:41:10;;;;;;;8.10;3.35;;;;;;;;;;4977427;28;20077;-72
2023/08/21 08:43:40;;;;;;;7.70;2.58;;;;;;;;;;4977525;28;20092;-72
2023/08/21 08:46:07;;;;;;;16.75;7.45;;;;;;;;;;4977228;28;20034;-73
2023/08/21 08:48:33;;;;;;;6.00;2.63;;;;;;;;;;4977174;28;20035;-72
2023/08/21 08:50:59;;;;;;;8.18;2.15;;;;;;;;;;4980270;28;20026;-72
2023/08/21 08:53:27;;;;;;;6.75;2.40;;;;;;;;;;4996430;28;20047;-72
2023/08/21 08:55:52;;;;;;;6.65;2.80;;;;;;;;;;4996631;28;20065;-71
2023/08/21 08:58:17;;;;;;;5.03;1.75;;;;;;;;;;4995886;28;20066;-69
2023/08/21 09:00:43;;;;;;;6.45;2.00;;;;;;;;;;4977034;28;20037;-69
2023/08/21 09:03:10;;;;;;;5.97;2.00;;;;;;;;;;4977091;28;20558;-71
2023/08/21 09:05:36;;;;;;;8.05;2.50;;;;;;;;;;4980455;28;20380;-70
2023/08/21 09:08:14;;;;;;;6.35;2.30;;;;;;;;;;4996260;28;20030;-72
2023/08/21 09:10:41;;;;;;;6.50;2.30;;;;;;;;;;4996615;28;20051;-71
2023/08/21 09:13:15;;;;;;;5.38;1.90;;;;;;;;;;4996335;28;20034;-69
2023/08/21 09:15:42;;;;;;;5.88;2.05;;;;;;;;;;4994956;28;20082;-70
2023/08/21 09:18:10;;;;;;;5.78;2.33;;;;;;;;;;4996168;28;20088;-67
2023/08/21 09:20:36;;;;;;;10.55;3.50;;;;;;;;;;4996265;28;20058;-67
2023/08/21 09:23:02;;;;;;;8.30;2.88;;;;;;;;;;4995906;28;20027;-67
2023/08/21 09:25:27;;;;;;;6.80;2.50;;;;;;;;;;4984865;28;20031;-72
2023/08/21 09:27:53;;;;;;;10.65;3.20;;;;;;;;;;4976528;28;20023;-73
2023/08/21 09:30:19;;;;;;;3.88;2.10;;;;;;;;;;4976463;28;20023;-73
2023/08/21 09:33:04;;;;;;;3.85;2.38;;;;;;;;;;4976470;28;20047;-74
2023/08/21 09:35:32;;;;;;;5.18;2.53;;;;;;;;;;4976118;28;20041;-72
2023/08/21 09:37:59;;;;;;;6.43;2.50;;;;;;;;;;4974715;28;20500;-70
2023/08/21 09:40:24;;;;;;;11.43;3.10;;;;;;;;;;4976323;28;20035;-73
2023/08/21 09:42:54;;;;;;;5.85;2.53;;;;;;;;;;4976346;28;20065;-72
2023/08/21 09:45:21;;;;;;;5.40;2.70;;;;;;;;;;4976084;28;20027;-72
2023/08/21 09:47:47;;;;;;;6.65;2.75;;;;;;;;;;4975983;28;20035;-67
2023/08/21 09:50:13;;;;;;;6.22;3.05;;;;;;;;;;4975937;28;20476;-69
2023/08/21 09:52:38;;;;;;;7.22;2.85;;;;;;;;;;4992426;28;20030;-70
2023/08/21 09:55:05;;;;;;;6.60;2.72;;;;;;;;;;4994264;28;20112;-72
2023/08/21 09:57:32;;;;;;;5.72;2.50;;;;;;;;;;4995409;28;20515;-71
2023/08/21 09:59:59;;;;;;;6.20;2.55;;;;;;;;;;4981224;28;20039;-69
2023/08/21 10:02:26;;;;;;;7.72;3.00;;;;;;;;;;4975793;28;20081;-71
2023/08/21 10:04:52;;;;;;;7.50;2.63;;;;;;;;;;4975511;28;20031;-72
2023/08/21 10:07:22;;;;;;;4.10;2.17;;;;;;;;;;4992935;28;20105;-72
2023/08/21 10:09:47;;;;;;;6.20;2.17;;;;;;;;;;4995058;28;20054;-72
2023/08/21 10:12:16;;;;;;;4.82;2.30;;;;;;;;;;4995218;28;20058;-70
2023/08/21 10:14:42;;;;;;;6.95;2.28;;;;;;;;;;4995380;28;20033;-68
2023/08/21 10:17:10;;;;;;;6.03;2.17;;;;;;;;;;4994981;28;20034;-74
2023/08/21 10:19:35;;;;;;;5.60;2.03;;;;;;;;;;4994968;28;20054;-73
2023/08/21 10:22:03;;;;;;;4.78;2.70;;;;;;;;;;4994969;28;20054;-73
2023/08/21 10:24:34;;;;;;;3.40;1.88;;;;;;;;;;4991855;28;20027;-72
2023/08/21 10:27:00;;;;;;;5.82;2.65;;;;;;;;;;4978612;28;20022;-73
2023/08/21 10:29:26;;;;;;;9.07;2.40;;;;;;;;;;4993589;28;20037;-71
2023/08/21 10:32:00;;;;;;;3.42;1.95;;;;;;;;;;4994994;28;20117;-72
2023/08/21 10:34:33;;;;;;;7.80;2.30;;;;;;;;;;4994798;28;20049;-72
2023/08/21 10:37:11;;;;;;;3.22;2.05;;;;;;;;;;4983022;28;20480;-72
2023/08/21 10:39:39;;;;;;;5.53;2.10;;;;;;;;;;4975200;28;20133;-72
2023/08/21 10:42:13;;;;;;;6.30;2.35;;;;;;;;;;4975035;28;20030;-72
2023/08/21 10:44:48;;;;;;;8.43;2.53;;;;;;;;;;4975288;28;20098;-69
2023/08/21 10:47:18;;;;;;;5.97;2.47;;;;;;;;;;4975080;28;20082;-72
2023/08/21 10:49:49;;;;;;;6.80;2.47;;;;;;;;;;4974433;28;20049;-70
2023/08/21 10:52:20;;;;;;;7.10;2.70;;;;;;;;;;4971037;28;20026;-65
2023/08/21 10:54:48;;;;;;;6.00;2.63;;;;;;;;;;4964393;28;20115;-62
2023/08/21 10:57:14;;;;;;;6.63;2.65;;;;;;;;;;4964184;28;20035;-65
2023/08/21 10:59:49;;;;;;;6.03;2.30;;;;;;;;;;4967719;28;20031;-60
2023/08/21 11:02:15;;;;;;;6.40;2.53;;;;;;;;;;4967051;28;20018;-62
2023/08/21 11:04:41;;;;;;;4.63;2.17;;;;;;;;;;4974575;28;20027;-61
2023/08/21 11:07:07;;;;;;;5.70;2.53;;;;;;;;;;4990275;28;20038;-68
2023/08/21 11:09:35;;;;;;;4.30;2.10;;;;;;;;;;4994241;28;20022;-61
2023/08/21 11:12:12;;;;;;;4.97;2.35;;;;;;;;;;4994149;28;20026;-65
2023/08/21 11:14:38;;;;;;;7.07;2.50;;;;;;;;;;4992912;28;20030;-61
2023/08/21 11:17:04;;;;;;;7.03;2.13;;;;;;;;;;4993748;28;20045;-60
2023/08/21 11:19:33;;;;;;;4.15;1.80;;;;;;;;;;4993835;28;20065;-60
2023/08/21 11:22:06;;;;;;;5.82;1.80;;;;;;;;;;4993915;28;20026;-65
2023/08/21 11:24:42;;;;;;;3.03;1.80;;;;;;;;;;4989122;28;20027;-61
2023/08/21 11:27:09;;;;;;;9.50;1.92;;;;;;;;;;4974382;28;20030;-62
2023/08/21 11:29:42;;;;;;;6.93;2.10;;;;;;;;;;4974412;28;20102;-60
2023/08/21 11:32:18;;;;;;;8.70;1.65;;;;;;;;;;4973901;28;20074;-61
2023/08/21 11:34:49;;;;;;;4.07;1.52;;;;;;;;;;4974440;28;20023;-60
2023/08/21 11:37:21;;;;;;;4.68;1.60;;;;;;;;;;4974255;28;20093;-60
2023/08/21 11:39:51;;;;;;;4.57;1.70;;;;;;;;;;4973931;28;20035;-63
2023/08/21 11:42:18;;;;;;;4.97;1.58;;;;;;;;;;4974101;28;20035;-60
2023/08/21 11:44:48;;;;;;;2.80;1.20;;;;;;;;;;4974236;28;20538;-60
2023/08/21 11:47:14;;;;;;;5.53;1.40;;;;;;;;;;4973376;28;20027;-67
2023/08/21 11:49:42;;;;;;;3.65;1.40;;;;;;;;;;4974087;28;20030;-61
2023/08/21 11:52:08;;;;;;;4.40;1.52;;;;;;;;;;4986170;28;20026;-61
2023/08/21 11:54:39;;;;;;;13.15;2.03;;;;;;;;;;4993501;28;20023;-61
2023/08/21 11:57:11;;;;;;;6.93;1.27;;;;;;;;;;4993229;28;20474;-60
2023/08/21 11:59:37;;;;;;;6.97;1.60;;;;;;;;;;4982030;28;20377;-61
2023/08/21 12:02:15;;;;;;;8.93;1.27;;;;;;;;;;4973015;28;20034;-61
2023/08/21 12:04:41;;;;;;;5.07;1.30;;;;;;;;;;4973697;28;20027;-61
2023/08/21 12:07:07;;;;;;;2.90;0.95;;;;;;;;;;4989489;28;20030;-60
2023/08/21 12:09:32;;;;;;;6.35;1.30;;;;;;;;;;4993074;28;20045;-64
2023/08/21 12:11:58;;;;;;;2.97;0.90;;;;;;;;;;4993125;28;20121;-60
2023/08/21 12:14:23;;;;;;;3.55;1.20;;;;;;;;;;4992975;28;20030;-61
2023/08/21 12:16:49;;;;;;;6.95;1.08;;;;;;;;;;4992830;28;20037;-60
2023/08/21 12:19:14;;;;;;;6.45;1.52;;;;;;;;;;4992838;28;20026;-59
2023/08/21 12:21:40;;;;;;;6.85;1.40;;;;;;;;;;4993110;28;20059;-59
2023/08/21 12:24:06;;;;;;;6.10;1.40;;;;;;;;;;4992577;28;20022;-62
2023/08/21 12:26:34;;;;;;;10.18;1.40;;;;;;;;;;4972431;28;20109;-64
2023/08/21 12:29:01;;;;;;;4.55;1.23;;;;;;;;;;4973665;28;20480;-62
2023/08/21 12:31:26;;;;;;;4.43;1.20;;;;;;;;;;4973127;28;20049;-60
2023/08/21 12:33:52;;;;;;;3.33;1.10;;;;;;;;;;4973563;28;20469;-62
2023/08/21 12:36:17;;;;;;;5.57;1.30;;;;;;;;;;4973525;28;20101;-60
2023/08/21 12:38:43;;;;;;;10.48;1.23;;;;;;;;;;4972192;28;20023;-60
2023/08/21 12:41:08;;;;;;;3.83;1.17;;;;;;;;;;4966624;28;20042;-63
2023/08/21 12:43:34;;;;;;;4.32;1.10;;;;;;;;;;4954178;29;20031;-62
2023/08/21 12:45:59;;;;;;;5.65;1.38;;;;;;;;;;4953806;29;20039;-62
2023/08/21 12:48:24;;;;;;;4.78;1.10;;;;;;;;;;4954180;29;20031;-63
2023/08/21 12:50:50;;;;;;;5.50;1.20;;;;;;;;;;4956462;28;20034;-61
2023/08/21 12:53:16;;;;;;;8.13;3.35;;;;;;;;;;4992647;28;20038;-63
2023/08/21 12:55:42;;;;;;;4.82;1.25;;;;;;;;;;4992648;28;20034;-64
2023/08/21 12:58:08;;;;;;;7.82;1.40;;;;;;;;;;4992611;28;20490;-61
2023/08/21 13:00:33;;;;;;;7.93;1.25;;;;;;;;;;4973653;28;20078;-64
2023/08/21 13:02:59;;;;;;;2.97;1.08;;;;;;;;;;4973251;28;20056;-59
2023/08/21 13:05:25;;;;;;;2.78;1.10;;;;;;;;;;4975138;28;20078;-62
2023/08/21 13:07:50;;;;;;;6.18;1.33;;;;;;;;;;4992692;28;20104;-64
2023/08/21 13:10:16;;;;;;;7.63;1.50;;;;;;;;;;4992612;28;20030;-60
2023/08/21 13:12:41;;;;;;;5.82;1.00;;;;;;;;;;4994787;28;20023;-64
2023/08/21 13:15:07;;;;;;;7.45;1.20;;;;;;;;;;4994858;28;20360;-61
2023/08/21 13:17:33;;;;;;;6.18;1.17;;;;;;;;;;4995909;28;20030;-61
2023/08/21 13:19:59;;;;;;;4.03;1.00;;;;;;;;;;4996302;28;20109;-61
2023/08/21 13:22:24;;;;;;;5.22;1.02;;;;;;;;;;4996269;28;20165;-60
2023/08/21 13:24:50;;;;;;;5.75;1.20;;;;;;;;;;4975303;28;20050;-63
2023/08/21 13:27:16;;;;;;;5.47;1.02;;;;;;;;;;4965369;28;20121;-64
2023/08/21 13:29:41;;;;;;;4.35;1.08;;;;;;;;;;4968928;28;20488;-68
2023/08/21 13:32:06;;;;;;;4.93;1.20;;;;;;;;;;4962096;28;20126;-63
2023/08/21 13:34:32;;;;;;;4.50;1.25;;;;;;;;;;4957279;29;20046;-67
2023/08/21 13:36:57;;;;;;;4.15;1.27;;;;;;;;;;4956864;29;20473;-63
2023/08/21 13:39:23;;;;;;;9.55;1.52;;;;;;;;;;4968882;28;20037;-71
2023/08/21 13:41:50;;;;;;;2.40;1.10;;;;;;;;;;4976117;28;20122;-62
2023/08/21 13:44:15;;;;;;;5.25;1.05;;;;;;;;;;4976118;28;20109;-59
2023/08/21 13:46:41;;;;;;;7.00;1.40;;;;;;;;;;4976000;28;20105;-59
2023/08/21 13:49:06;;;;;;;3.28;1.23;;;;;;;;;;4976124;28;20390;-67
2023/08/21 13:51:32;;;;;;;5.95;1.20;;;;;;;;;;4983528;28;20109;-59
2023/08/21 13:53:57;;;;;;;9.05;1.20;;;;;;;;;;4995566;28;20033;-60
2023/08/21 13:56:23;;;;;;;3.90;1.02;;;;;;;;;;4995111;28;20030;-61
2023/08/21 13:58:48;;;;;;;14.52;1.20;;;;;;;;;;4990834;28;20041;-61
2023/08/21 14:01:13;;;;;;;2.30;0.80;;;;;;;;;;4976005;28;20046;-60
2023/08/21 14:03:40;;;;;;;4.25;1.00;;;;;;;;;;4975832;28;20038;-61
2023/08/21 14:06:06;;;;;;;6.00;1.30;;;;;;;;;;4983462;28;20101;-62
2023/08/21 14:08:31;;;;;;;2.78;0.90;;;;;;;;;;4995519;28;20110;-61
2023/08/21 14:10:57;;;;;;;2.50;0.90;;;;;;;;;;4995213;28;20031;-61
2023/08/21 14:13:22;;;;;;;4.53;1.23;;;;;;;;;;4994116;28;20030;-61
2023/08/21 14:15:48;;;;;;;5.85;1.20;;;;;;;;;;4995092;28;20060;-61
2023/08/21 14:18:13;;;;;;;2.03;0.90;;;;;;;;;;4995136;28;20018;-71
2023/08/21 14:20:38;;;;;;;3.30;1.10;;;;;;;;;;4995092;28;20484;-73
2023/08/21 14:23:04;;;;;;;5.43;1.23;;;;;;;;;;4994618;28;20480;-72
2023/08/21 14:25:29;;;;;;;8.05;1.40;;;;;;;;;;4983065;28;20015;-67
2023/08/21 14:27:55;;;;;;;2.95;1.10;;;;;;;;;;4975066;28;20342;-70
2023/08/21 14:30:21;;;;;;;3.13;1.17;;;;;;;;;;4974871;28;20035;-68
2023/08/21 14:32:46;;;;;;;3.85;1.10;;;;;;;;;;4975203;28;20051;-70